Los Angeles, CA (90038)

12:16 AM PST on March 04, 2015 (GMT -0800)
MacDumes - Park La Brea | Change Station
CLOSE
Current Station
Personal Weather Station
Location: Los Angeles, CA
Elevation: 217 ft
Nearby Weather Stations

Elev 217 ft 34.07 °N, 118.35 °W | Updated 9 seconds ago

Clear
Clear
54.0 °F
Feels Like 54.0 °F
N
0.0
Wind Variable Wind from SW
Gusts 0.0 mph

Today
High -- | Low -- °F
--% Chance of Precip.
Yesterday
High -- | Low -- °F
Precip. -- in
6:18 AM 5:52 PM
Waxing Gibbous, 98% visible
Pressure 29.96 in
Visibility 10.0 miles
Clouds Clear
Dew Point 51 °F
Humidity 89%
Rainfall 0.00 in
Snow Depth Not available.
UV 0 out of 12
Pollen 8.60 out of 12
Air Quality Not available.
Flu Activity Not available.
METAR KCQT 040747Z AUTO 00000KT 10SM CLR 13/08 A2996 RMK AO2 SLP144 T01280083 401940089

More Conditions Fewer Conditions

Pressure 29.96 in
Visibility 10.0 miles
Clouds Clear
Dew Point 51 °F
Humidity 89%
Rainfall 0.00 in
Snow Depth Not available.
UV 0 out of 12
Pollen 8.60 out of 12
Air Quality Not available.
Flu Activity Not available.
METAR KCQT 040747Z AUTO 00000KT 10SM CLR 13/08 A2996 RMK AO2 SLP144 T01280083 401940089

More Conditions Fewer Conditions

10-Day Weather Forecast

Almanac

Astronomy

Mar. 04, 2015 Rise Set
Actual Time
Civil Twilight
Nautical Twilight
Astronomical Twilight
Moon
Length of Visible Light
Length of Day
Tomorrow will be .
, % of the Moon is Illuminated

Today's Extremes

State Highs State Lows

Community

WunderPhotos

Upload Photos

1,802,416 photos uploaded!

WunderBlogs® & News

Nearby

Air Quality

  Air Quality AQ Index Pollutant
Not available.

Snow Depth

Station Depth Elevation

Earthquake Activity

City Distance Mag. Time & Date
Minimum magnitude displayed is 2.5.

Coastal Water Temperatures

Place Temperature

Nearby Weather Stations